createdAt,value
2023-04-07T00:00:19.140Z,19.02
2023-04-07T00:02:48.952Z,22.75
2023-04-07T00:05:17.710Z,23.00
2023-04-07T00:07:55.707Z,18.92
2023-04-07T00:10:25.823Z,20.23
2023-04-07T00:12:54.495Z,34.05
2023-04-07T00:15:23.127Z,18.70
2023-04-07T00:17:52.930Z,22.17
2023-04-07T00:20:21.756Z,17.35
2023-04-07T00:22:50.251Z,21.83
2023-04-07T00:25:19.217Z,15.07
2023-04-07T00:27:47.814Z,18.10
2023-04-07T00:30:17.690Z,13.95
2023-04-07T00:32:46.387Z,15.68
2023-04-07T00:35:16.308Z,21.52
2023-04-07T00:37:44.962Z,17.40
2023-04-07T00:40:13.942Z,14.75
2023-04-07T00:42:42.693Z,10.93
2023-04-07T00:45:12.722Z,15.95
2023-04-07T00:47:42.072Z,16.13
2023-04-07T00:50:11.930Z,9.90
2023-04-07T00:52:42.399Z,17.42
2023-04-07T00:55:11.245Z,13.45
2023-04-07T00:57:39.616Z,14.35
2023-04-07T01:00:09.930Z,21.05
2023-04-07T01:02:43.252Z,14.15
2023-04-07T01:05:17.540Z,14.38
2023-04-07T01:07:59.709Z,12.30
2023-04-07T01:10:36.526Z,11.88
2023-04-07T01:13:25.109Z,16.75
2023-04-07T01:16:00.622Z,12.73
2023-04-07T01:18:34.604Z,15.32
2023-04-07T01:21:07.135Z,13.45
2023-04-07T01:24:02.610Z,13.52
2023-04-07T01:26:33.665Z,10.80
2023-04-07T01:29:35.432Z,12.82
2023-04-07T01:32:08.290Z,12.35
2023-04-07T01:34:38.127Z,14.80
2023-04-07T01:37:07.645Z,14.85
2023-04-07T01:39:37.869Z,13.30
2023-04-07T01:42:07.974Z,13.63
2023-04-07T01:44:38.597Z,17.42
2023-04-07T01:47:08.135Z,13.00
2023-04-07T01:49:37.995Z,13.02
2023-04-07T01:52:07.647Z,12.15
2023-04-07T01:54:36.781Z,12.93
2023-04-07T01:57:05.506Z,12.57
2023-04-07T01:59:34.177Z,12.13
2023-04-07T02:02:05.625Z,10.88
2023-04-07T02:04:41.182Z,12.50
2023-04-07T02:07:15.320Z,12.80
2023-04-07T02:09:49.384Z,13.10
2023-04-07T02:12:19.071Z,11.63
2023-04-07T02:14:59.807Z,12.90
2023-04-07T02:17:31.144Z,15.70
2023-04-07T02:20:02.463Z,16.88
2023-04-07T02:22:31.886Z,12.55
2023-04-07T02:25:00.732Z,14.23
2023-04-07T02:27:29.166Z,12.25
2023-04-07T02:29:57.752Z,10.30
2023-04-07T02:32:26.654Z,15.20
2023-04-07T02:34:56.875Z,14.82
2023-04-07T02:37:25.662Z,12.75
2023-04-07T02:39:54.227Z,14.48
2023-04-07T02:42:22.881Z,10.80
2023-04-07T02:44:51.698Z,14.73
2023-04-07T02:47:20.565Z,13.48
2023-04-07T02:49:49.294Z,23.17
2023-04-07T02:52:19.209Z,16.00
2023-04-07T02:54:47.784Z,12.73
2023-04-07T02:57:18.975Z,12.70
2023-04-07T02:59:48.338Z,12.73
2023-04-07T03:02:17.669Z,10.85
2023-04-07T03:04:46.383Z,18.17
2023-04-07T03:07:15.032Z,12.10
2023-04-07T03:09:44.763Z,14.43
2023-04-07T03:12:14.004Z,11.93
2023-04-07T03:14:42.650Z,10.00
2023-04-07T03:17:12.757Z,13.60
2023-04-07T03:19:41.200Z,14.55
2023-04-07T03:22:10.017Z,12.25
2023-04-07T03:24:46.581Z,13.55
2023-04-07T03:27:17.444Z,13.55
2023-04-07T03:29:48.918Z,10.05
2023-04-07T03:32:18.867Z,13.88
2023-04-07T03:34:47.446Z,12.57
2023-04-07T03:37:16.165Z,14.60
2023-04-07T03:39:46.476Z,13.43
2023-04-07T03:42:28.054Z,15.65
2023-04-07T03:45:02.838Z,15.23
2023-04-07T03:47:33.471Z,14.13
2023-04-07T03:50:04.646Z,13.48
2023-04-07T03:52:38.160Z,15.00
2023-04-07T03:55:17.205Z,15.45
2023-04-07T03:57:45.994Z,14.88
2023-04-07T04:00:15.598Z,15.68
2023-04-07T04:03:01.152Z,11.02
2023-04-07T04:05:30.254Z,9.52
2023-04-07T04:07:59.322Z,13.65
2023-04-07T04:10:30.429Z,15.05
2023-04-07T04:13:00.913Z,13.13
2023-04-07T04:15:29.679Z,14.25
2023-04-07T04:17:58.409Z,17.20
2023-04-07T04:20:27.578Z,14.55
2023-04-07T04:22:56.304Z,13.10
2023-04-07T04:25:25.300Z,12.57
2023-04-07T04:27:58.560Z,14.77
2023-04-07T04:30:29.892Z,11.10
2023-04-07T04:33:04.124Z,12.75
2023-04-07T04:35:39.599Z,14.65
2023-04-07T04:38:11.971Z,21.02
2023-04-07T04:40:45.374Z,13.07
2023-04-07T04:43:16.933Z,16.10
2023-04-07T04:45:46.459Z,17.23
2023-04-07T04:48:17.319Z,16.42
2023-04-07T04:50:46.044Z,16.75
2023-04-07T04:53:15.977Z,16.13
2023-04-07T04:55:53.266Z,15.05
2023-04-07T04:58:33.695Z,13.48
2023-04-07T05:01:02.043Z,19.70
2023-04-07T05:03:38.955Z,17.88
2023-04-07T05:06:16.785Z,24.17
2023-04-07T05:08:47.239Z,16.67
2023-04-07T05:11:17.423Z,12.20
2023-04-07T05:13:51.940Z,12.63
2023-04-07T05:16:20.896Z,15.88
2023-04-07T05:18:49.823Z,13.27
2023-04-07T05:21:20.208Z,15.13
2023-04-07T05:23:49.247Z,14.00
2023-04-07T05:26:18.075Z,12.40
2023-04-07T05:28:47.094Z,13.98
2023-04-07T05:31:21.787Z,16.70
2023-04-07T05:33:54.001Z,15.60
2023-04-07T05:36:25.595Z,19.40
2023-04-07T05:38:57.595Z,15.60
2023-04-07T05:41:26.348Z,15.70
2023-04-07T05:43:55.072Z,14.05
2023-04-07T05:46:25.322Z,17.65
2023-04-07T05:48:59.165Z,18.77
2023-04-07T05:51:32.206Z,15.77
2023-04-07T05:54:04.511Z,17.17
2023-04-07T05:56:33.809Z,15.52
2023-04-07T05:59:02.919Z,17.25
2023-04-07T06:01:32.810Z,16.05
2023-04-07T06:04:03.377Z,19.50
2023-04-07T06:06:32.461Z,16.52
2023-04-07T06:09:01.104Z,32.30
2023-04-07T06:11:29.790Z,26.73
2023-04-07T06:13:58.124Z,28.38
2023-04-07T06:16:26.849Z,16.15
2023-04-07T06:18:56.863Z,11.65
2023-04-07T06:21:26.511Z,12.85
2023-04-07T06:23:55.268Z,14.30
2023-04-07T06:26:23.743Z,13.88
2023-04-07T06:28:53.055Z,12.50
2023-04-07T06:31:22.034Z,16.30
2023-04-07T06:33:50.911Z,17.05
2023-04-07T06:36:23.402Z,11.30
2023-04-07T06:38:52.208Z,15.52
2023-04-07T06:41:20.797Z,19.90
2023-04-07T06:43:51.275Z,12.93
2023-04-07T06:46:20.476Z,16.73
2023-04-07T06:48:49.136Z,16.73
2023-04-07T06:51:17.429Z,16.88
2023-04-07T06:53:48.647Z,17.80
2023-04-07T06:56:17.247Z,13.23
2023-04-07T06:58:45.560Z,12.48
2023-04-07T07:01:14.195Z,17.98
2023-04-07T07:03:42.942Z,14.82
2023-04-07T07:06:11.791Z,15.30
2023-04-07T07:08:40.384Z,16.40
2023-04-07T07:11:10.420Z,17.75
2023-04-07T07:13:39.811Z,12.07
2023-04-07T07:16:08.599Z,13.85
2023-04-07T07:18:37.926Z,13.45
2023-04-07T07:21:06.875Z,13.13
2023-04-07T07:23:35.608Z,10.85
2023-04-07T07:26:04.224Z,15.52
2023-04-07T07:28:33.953Z,13.15
2023-04-07T07:31:04.397Z,13.80
2023-04-07T07:33:32.979Z,11.40
2023-04-07T07:36:01.557Z,13.52
2023-04-07T07:38:30.174Z,11.05
2023-04-07T07:40:58.723Z,11.00
2023-04-07T07:43:27.757Z,7.88
2023-04-07T07:45:57.650Z,11.25
2023-04-07T07:48:26.808Z,11.48
2023-04-07T07:50:56.951Z,10.40
2023-04-07T07:53:25.892Z,8.43
2023-04-07T07:55:55.956Z,8.30
2023-04-07T07:58:24.718Z,15.52
2023-04-07T08:00:53.366Z,16.63
2023-04-07T08:03:23.514Z,10.75
2023-04-07T08:05:52.204Z,8.77
2023-04-07T08:08:20.785Z,9.55
2023-04-07T08:10:49.393Z,11.07
2023-04-07T08:13:17.684Z,11.05
2023-04-07T08:15:46.286Z,14.25
2023-04-07T08:18:14.919Z,8.35
2023-04-07T08:20:44.640Z,9.98
2023-04-07T08:23:13.335Z,9.00
2023-04-07T08:25:41.912Z,10.93
2023-04-07T08:28:10.501Z,11.23
2023-04-07T08:30:39.146Z,10.13
2023-04-07T08:33:08.862Z,11.50
2023-04-07T08:35:37.552Z,11.10
2023-04-07T08:38:08.565Z,10.88
2023-04-07T08:40:37.550Z,9.93
2023-04-07T08:43:10.483Z,10.25
2023-04-07T08:45:42.146Z,10.32
2023-04-07T08:48:19.032Z,7.90
2023-04-07T08:50:52.603Z,14.73
2023-04-07T08:53:30.581Z,11.45
2023-04-07T08:55:59.698Z,9.43
2023-04-07T08:58:28.631Z,9.75
2023-04-07T09:00:57.819Z,17.83
2023-04-07T09:03:28.121Z,14.40
2023-04-07T09:05:57.923Z,8.43
2023-04-07T09:08:27.682Z,11.00
2023-04-07T09:10:57.994Z,12.60
2023-04-07T09:13:26.831Z,8.20
2023-04-07T09:15:56.119Z,11.23
2023-04-07T09:18:25.024Z,10.38
2023-04-07T09:21:02.413Z,13.10
2023-04-07T09:23:37.234Z,8.10
2023-04-07T09:28:53.209Z,6.90
2023-04-07T09:31:22.498Z,11.73
2023-04-07T09:33:51.773Z,11.93
2023-04-07T09:36:20.470Z,12.60
2023-04-07T09:38:50.161Z,7.80
2023-04-07T09:41:18.965Z,7.45
2023-04-07T09:43:48.368Z,4.93
2023-04-07T09:46:19.486Z,8.80
2023-04-07T09:48:48.558Z,12.48
2023-04-07T09:51:18.320Z,11.90
2023-04-07T09:53:51.474Z,9.95
2023-04-07T09:56:22.406Z,9.68
2023-04-07T09:58:53.072Z,10.15
2023-04-07T10:01:22.899Z,9.90
2023-04-07T10:03:52.863Z,7.18
2023-04-07T10:06:21.774Z,7.15
2023-04-07T10:08:51.613Z,11.40
2023-04-07T10:11:21.040Z,8.75
2023-04-07T10:13:49.954Z,9.90
2023-04-07T10:16:18.979Z,8.90
2023-04-07T10:18:47.853Z,4.07
2023-04-07T10:21:18.171Z,4.95
2023-04-07T10:23:57.851Z,5.05
2023-04-07T10:26:31.402Z,8.70
2023-04-07T10:29:07.086Z,6.47
2023-04-07T10:31:36.408Z,6.88
2023-04-07T10:34:05.817Z,7.88
2023-04-07T10:36:35.378Z,6.60
2023-04-07T10:39:24.269Z,4.60
2023-04-07T10:41:53.292Z,6.72
2023-04-07T10:44:46.646Z,4.10
2023-04-07T10:47:15.330Z,3.55
2023-04-07T10:50:20.378Z,4.30
2023-04-07T10:52:50.687Z,5.63
2023-04-07T10:55:37.967Z,6.47
2023-04-07T10:58:25.459Z,4.25
2023-04-07T11:01:20.797Z,7.35
2023-04-07T11:04:02.464Z,3.40
2023-04-07T11:06:31.516Z,5.05
2023-04-07T11:09:00.147Z,7.35
2023-04-07T11:11:43.451Z,4.78
2023-04-07T11:14:12.134Z,6.53
2023-04-07T11:16:43.258Z,9.02
2023-04-07T11:19:11.872Z,11.82
2023-04-07T11:21:41.058Z,12.60
2023-04-07T11:24:09.706Z,9.15
2023-04-07T11:26:43.645Z,4.85
2023-04-07T11:29:13.451Z,5.07
2023-04-07T11:31:42.034Z,6.65
2023-04-07T11:34:11.175Z,8.85
2023-04-07T11:36:42.704Z,8.20
2023-04-07T11:39:21.274Z,6.00
2023-04-07T11:41:51.992Z,4.72
2023-04-07T11:44:21.008Z,8.63
2023-04-07T11:46:56.838Z,7.53
2023-04-07T11:49:28.033Z,6.15
2023-04-07T11:52:01.778Z,8.45
2023-04-07T11:54:41.169Z,8.65
2023-04-07T11:57:12.803Z,8.90
2023-04-07T11:59:42.437Z,6.82
2023-04-07T12:02:10.814Z,9.57
2023-04-07T12:04:41.359Z,6.25
2023-04-07T12:07:11.159Z,6.65
2023-04-07T12:09:41.010Z,8.15
2023-04-07T12:12:11.083Z,7.32
2023-04-07T12:14:39.861Z,12.57
2023-04-07T12:17:09.452Z,8.52
2023-04-07T12:19:39.428Z,11.13
2023-04-07T12:22:07.731Z,6.38
2023-04-07T12:24:36.445Z,8.27
2023-04-07T12:27:05.227Z,10.75
2023-04-07T12:29:36.594Z,10.75
2023-04-07T12:32:05.484Z,5.28
2023-04-07T12:34:37.375Z,7.45
2023-04-07T12:37:07.227Z,7.85
2023-04-07T12:39:35.940Z,5.55
2023-04-07T12:42:05.132Z,6.05
2023-04-07T12:44:34.778Z,6.00
2023-04-07T12:47:03.361Z,7.20
2023-04-07T12:49:31.980Z,4.90
2023-04-07T12:52:00.586Z,9.18
2023-04-07T12:54:28.880Z,5.28
2023-04-07T12:56:57.250Z,11.68
2023-04-07T12:59:25.731Z,5.03
2023-04-07T13:01:56.341Z,5.38
2023-04-07T13:04:26.928Z,5.40
2023-04-07T13:06:55.810Z,5.32
2023-04-07T13:09:24.115Z,9.43
2023-04-07T13:11:52.759Z,4.72
2023-04-07T13:14:21.352Z,4.97
2023-04-07T13:16:49.790Z,4.50
2023-04-07T13:19:19.571Z,6.95
2023-04-07T13:21:48.555Z,4.65
2023-04-07T13:24:17.310Z,3.60
2023-04-07T13:26:46.400Z,3.67
2023-04-07T13:29:15.014Z,3.95
2023-04-07T13:31:43.610Z,3.17
2023-04-07T13:34:12.223Z,6.22
2023-04-07T13:36:42.970Z,3.17
2023-04-07T13:39:12.188Z,3.03
2023-04-07T13:41:40.788Z,3.50
2023-04-07T13:44:09.506Z,2.17
2023-04-07T13:46:38.237Z,7.30
2023-04-07T13:49:07.501Z,2.22
2023-04-07T13:51:36.099Z,3.67
2023-04-07T13:54:05.914Z,2.60
2023-04-07T13:56:35.570Z,2.65
2023-04-07T13:59:04.540Z,3.55
2023-04-07T14:01:33.890Z,2.70
2023-04-07T14:04:02.868Z,2.53
2023-04-07T14:06:31.701Z,3.17
2023-04-07T14:09:01.102Z,3.97
2023-04-07T14:11:31.060Z,3.70
2023-04-07T14:13:59.847Z,4.60
2023-04-07T14:16:28.530Z,4.75
2023-04-07T14:18:57.206Z,3.90
2023-04-07T14:21:27.445Z,2.90
2023-04-07T14:23:56.257Z,3.10
2023-04-07T14:26:25.127Z,2.55
2023-04-07T14:28:54.788Z,3.50
2023-04-07T14:31:23.432Z,4.25
2023-04-07T14:33:51.988Z,3.78
2023-04-07T14:36:20.722Z,2.92
2023-04-07T14:38:50.808Z,2.72
2023-04-07T14:41:20.201Z,1.60
2023-04-07T14:43:53.655Z,1.90
2023-04-07T14:46:23.797Z,6.80
2023-04-07T14:48:53.541Z,1.73
2023-04-07T14:51:23.232Z,1.85
2023-04-07T14:53:55.760Z,2.38
2023-04-07T14:56:24.759Z,1.73
2023-04-07T14:58:53.379Z,3.08
2023-04-07T15:01:23.237Z,1.35
2023-04-07T15:03:53.639Z,1.75
2023-04-07T15:06:23.489Z,1.40
2023-04-07T15:08:52.066Z,1.70
2023-04-07T15:11:21.561Z,2.20
2023-04-07T15:13:50.755Z,1.98
2023-04-07T15:16:19.783Z,2.30
2023-04-07T15:18:50.101Z,2.75
2023-04-07T15:21:19.118Z,2.53
2023-04-07T15:23:48.094Z,2.80
2023-04-07T15:26:17.024Z,2.13
2023-04-07T15:28:45.338Z,2.20
2023-04-07T15:31:15.313Z,2.22
2023-04-07T15:33:44.804Z,4.40
2023-04-07T15:36:14.455Z,3.63
2023-04-07T15:38:43.112Z,4.93
2023-04-07T15:41:15.201Z,2.60
2023-04-07T15:43:43.830Z,2.22
2023-04-07T15:46:12.442Z,2.50
2023-04-07T15:48:41.132Z,3.33
2023-04-07T15:51:09.715Z,3.72
2023-04-07T15:53:39.442Z,4.68
2023-04-07T15:56:08.364Z,6.13
2023-04-07T15:58:36.900Z,7.85
2023-04-07T16:01:06.097Z,3.78
2023-04-07T16:03:34.787Z,2.60
2023-04-07T16:06:03.426Z,4.30
2023-04-07T16:08:32.071Z,3.63
2023-04-07T16:11:02.060Z,6.45
2023-04-07T16:13:30.633Z,8.18
2023-04-07T16:15:59.246Z,3.85
2023-04-07T16:18:27.571Z,4.07
2023-04-07T16:20:56.172Z,2.63
2023-04-07T16:23:24.747Z,2.22
2023-04-07T16:25:53.346Z,3.15
2023-04-07T16:28:23.055Z,4.20
2023-04-07T16:30:51.649Z,2.00
2023-04-07T16:33:21.001Z,3.03
2023-04-07T16:35:49.599Z,3.92
2023-04-07T16:38:18.176Z,2.38
2023-04-07T16:41:02.679Z,2.22
2023-04-07T16:43:33.404Z,1.85
2023-04-07T16:46:01.854Z,1.60
2023-04-07T16:48:30.738Z,1.50
2023-04-07T16:50:59.024Z,2.35
2023-04-07T16:53:27.367Z,2.17
2023-04-07T16:55:56.439Z,2.03
2023-04-07T16:58:25.039Z,2.25
2023-04-07T17:00:55.012Z,2.35
2023-04-07T17:03:23.738Z,4.95
2023-04-07T17:05:52.403Z,1.83
2023-04-07T17:08:21.193Z,5.75
2023-04-07T17:10:49.460Z,1.67
2023-04-07T17:13:18.047Z,1.33
2023-04-07T17:15:46.733Z,1.70
2023-04-07T17:18:16.461Z,1.33
2023-04-07T17:20:45.022Z,1.65
2023-04-07T17:23:14.222Z,2.90
2023-04-07T17:25:42.996Z,1.52
2023-04-07T17:28:11.333Z,1.77
2023-04-07T17:30:39.966Z,6.10
2023-04-07T17:33:09.084Z,4.90
2023-04-07T17:35:38.883Z,1.83
2023-04-07T17:38:07.324Z,6.55
2023-04-07T17:40:36.152Z,1.40
2023-04-07T17:43:04.774Z,3.17
2023-04-07T17:45:33.093Z,3.45
2023-04-07T17:48:03.583Z,3.88
2023-04-07T17:50:32.621Z,5.57
2023-04-07T17:53:02.364Z,3.83
2023-04-07T17:55:30.955Z,3.08
2023-04-07T17:58:01.022Z,3.72
2023-04-07T18:00:30.596Z,3.80
2023-04-07T18:02:59.560Z,4.20
2023-04-07T18:05:30.842Z,2.35
2023-04-07T18:08:00.812Z,5.75
2023-04-07T18:10:29.947Z,3.50
2023-04-07T18:12:58.601Z,1.92
2023-04-07T18:15:27.709Z,1.73
2023-04-07T18:17:56.418Z,3.83
2023-04-07T18:20:24.898Z,9.18
2023-04-07T18:22:53.605Z,8.20
2023-04-07T18:25:23.668Z,3.13
2023-04-07T18:27:52.357Z,2.67
2023-04-07T18:30:21.355Z,3.35
2023-04-07T18:32:50.113Z,2.60
2023-04-07T18:35:18.717Z,3.85
2023-04-07T18:37:47.353Z,2.40
2023-04-07T18:40:16.203Z,5.05
2023-04-07T18:42:46.366Z,2.75
2023-04-07T18:45:14.996Z,2.47
2023-04-07T18:47:43.327Z,2.85
2023-04-07T18:50:12.029Z,2.33
2023-04-07T18:52:40.620Z,2.63
2023-04-07T18:55:10.866Z,3.53
2023-04-07T18:57:40.267Z,3.53
2023-04-07T19:00:11.234Z,2.60
2023-04-07T19:02:44.354Z,2.20
2023-04-07T19:05:13.416Z,2.72
2023-04-07T19:07:41.719Z,3.28
2023-04-07T19:10:10.994Z,3.13
2023-04-07T19:12:40.003Z,4.93
2023-04-07T19:15:11.304Z,6.93
2023-04-07T19:17:40.183Z,9.88
2023-04-07T19:20:09.819Z,14.98
2023-04-07T19:22:38.437Z,14.55
2023-04-07T19:25:08.313Z,13.82
2023-04-07T19:27:37.057Z,9.57
2023-04-07T19:30:06.799Z,5.10
2023-04-07T19:32:36.585Z,6.50
2023-04-07T19:35:05.412Z,5.35
2023-04-07T19:37:34.513Z,5.47
2023-04-07T19:40:03.708Z,3.55
2023-04-07T19:42:32.535Z,3.65
2023-04-07T19:45:02.344Z,4.35
2023-04-07T19:47:31.194Z,2.75
2023-04-07T19:50:01.371Z,2.55
2023-04-07T19:52:31.326Z,2.70
2023-04-07T19:55:01.071Z,5.00
2023-04-07T19:57:31.095Z,2.15
2023-04-07T19:59:59.473Z,3.97
2023-04-07T20:02:29.010Z,1.90
2023-04-07T20:04:58.427Z,1.92
2023-04-07T20:07:29.243Z,3.78
2023-04-07T20:09:58.258Z,2.83
2023-04-07T20:12:26.874Z,3.05
2023-04-07T20:14:55.373Z,3.10
2023-04-07T20:17:23.972Z,5.85
2023-04-07T20:19:55.920Z,2.45
2023-04-07T20:22:24.502Z,3.22
2023-04-07T20:24:54.169Z,2.17
2023-04-07T20:27:22.848Z,2.42
2023-04-07T20:29:51.709Z,4.47
2023-04-07T20:32:20.374Z,4.32
2023-04-07T20:34:51.554Z,5.25
2023-04-07T20:37:20.541Z,3.78
2023-04-07T20:39:49.293Z,3.45
2023-04-07T20:42:19.008Z,2.47
2023-04-07T20:44:50.171Z,4.07
2023-04-07T20:47:18.803Z,5.05
2023-04-07T20:49:47.652Z,3.75
2023-04-07T20:52:16.614Z,5.72
2023-04-07T20:54:47.588Z,6.15
2023-04-07T20:57:16.194Z,5.72
2023-04-07T20:59:45.865Z,3.35
2023-04-07T21:02:14.667Z,3.08
2023-04-07T21:04:43.412Z,2.60
2023-04-07T21:07:12.004Z,4.13
2023-04-07T21:09:41.367Z,5.03
2023-04-07T21:12:10.867Z,4.15
2023-04-07T21:14:39.140Z,6.18
2023-04-07T21:17:08.830Z,3.47
2023-04-07T21:19:37.232Z,2.72
2023-04-07T21:22:05.958Z,3.40
2023-04-07T21:24:34.630Z,3.53
2023-04-07T21:27:03.267Z,5.32
2023-04-07T21:29:32.690Z,3.15
2023-04-07T21:32:01.053Z,2.35
2023-04-07T21:34:31.005Z,3.88
2023-04-07T21:36:59.623Z,4.60
2023-04-07T21:39:27.984Z,4.68
2023-04-07T21:41:56.937Z,3.55
2023-04-07T21:44:25.609Z,6.13
2023-04-07T21:46:54.344Z,4.07
2023-04-07T21:49:23.025Z,2.67
2023-04-07T21:51:52.827Z,4.50
2023-04-07T21:54:21.567Z,2.45
2023-04-07T21:56:51.583Z,4.78
2023-04-07T21:59:20.154Z,2.97
2023-04-07T22:01:48.837Z,4.88
2023-04-07T22:04:17.806Z,3.00
2023-04-07T22:06:46.442Z,2.90
2023-04-07T22:09:16.427Z,3.55
2023-04-07T22:11:44.753Z,3.33
2023-04-07T22:14:13.373Z,3.28
2023-04-07T22:16:41.672Z,3.35
2023-04-07T22:19:10.335Z,3.58
2023-04-07T22:21:38.887Z,3.38
2023-04-07T22:24:07.215Z,3.65
2023-04-07T22:26:37.565Z,4.75
2023-04-07T22:29:06.235Z,6.07
2023-04-07T22:31:34.876Z,4.88
2023-04-07T22:34:03.689Z,5.85
2023-04-07T22:36:33.488Z,5.28
2023-04-07T22:39:02.092Z,6.80
2023-04-07T22:41:30.398Z,6.65
2023-04-07T22:44:00.137Z,3.63
2023-04-07T22:46:28.545Z,5.40
2023-04-07T22:48:57.621Z,3.20
2023-04-07T22:51:27.061Z,4.85
2023-04-07T22:53:55.534Z,7.00
2023-04-07T22:56:25.374Z,4.97
2023-04-07T22:58:53.948Z,5.25
2023-04-07T23:01:24.087Z,4.22
2023-04-07T23:03:52.765Z,4.72
2023-04-07T23:06:21.047Z,3.15
2023-04-07T23:08:49.872Z,4.88
2023-04-07T23:11:19.148Z,5.07
2023-04-07T23:13:48.356Z,8.13
2023-04-07T23:16:17.293Z,4.80
2023-04-07T23:18:47.169Z,4.93
2023-04-07T23:21:15.936Z,4.97
2023-04-07T23:23:44.518Z,5.28
2023-04-07T23:26:13.083Z,4.05
2023-04-07T23:28:41.644Z,4.30
2023-04-07T23:31:10.511Z,2.92
2023-04-07T23:33:39.092Z,3.85
2023-04-07T23:36:08.926Z,5.88
2023-04-07T23:38:39.509Z,3.65
2023-04-07T23:41:08.522Z,3.85
2023-04-07T23:43:37.099Z,5.63
2023-04-07T23:46:05.533Z,3.47
2023-04-07T23:48:34.142Z,6.30
2023-04-07T23:51:02.736Z,5.45
2023-04-07T23:53:32.974Z,3.10
2023-04-07T23:56:01.672Z,7.07
2023-04-07T23:58:30.407Z,3.67
